Time;durP1;ratioP1;P1;durP2;ratioP2;P2;SDS_P1;SDS_P2;PMS_P1;PMS_P2;Temp;Humidity;BMP_temperature;BMP_pressure;BME280_temperature;BME280_humidity;BME280_pressure;Samples;Min_cycle;Max_cycle;Signal;HPM_P1;HPM_P2
2022/12/12 00:01:36;;;;;;;25.90;13.38;;;0.30;99.90;;;;;;4983518;28;20064;-81
2022/12/12 00:04:03;;;;;;;29.77;14.48;;;0.30;99.90;;;;;;4990209;28;20505;-82
2022/12/12 00:06:32;;;;;;;30.67;13.98;;;0.30;99.90;;;;;;4983782;28;20408;-82
2022/12/12 00:08:58;;;;;;;31.48;15.02;;;0.30;99.90;;;;;;4961485;28;20909;-82
2022/12/12 00:11:25;;;;;;;31.48;14.98;;;0.30;99.90;;;;;;4987774;28;20045;-83
2022/12/12 00:13:51;;;;;;;29.10;14.55;;;0.30;99.90;;;;;;4980365;28;20049;-82
2022/12/12 00:16:18;;;;;;;29.38;14.23;;;0.30;99.90;;;;;;4977710;28;20126;-82
2022/12/12 00:18:43;;;;;;;26.38;13.23;;;0.30;99.90;;;;;;4982068;28;20137;-82
2022/12/12 00:21:15;;;;;;;24.35;12.52;;;0.30;99.90;;;;;;5002159;28;20172;-82
2022/12/12 00:23:41;;;;;;;28.25;14.38;;;0.30;99.90;;;;;;4988242;28;20049;-81
2022/12/12 00:26:21;;;;;;;27.92;13.57;;;0.30;99.90;;;;;;4972679;28;20806;-82
2022/12/12 00:28:47;;;;;;;27.25;13.88;;;0.30;99.90;;;;;;4984394;28;20056;-82
2022/12/12 00:31:14;;;;;;;29.88;13.82;;;0.30;99.90;;;;;;4984387;28;20133;-82
2022/12/12 00:33:39;;;;;;;27.02;12.55;;;0.30;99.90;;;;;;4983933;28;20046;-82
2022/12/12 00:36:08;;;;;;;30.02;13.05;;;0.30;99.90;;;;;;4965775;28;20049;-82
2022/12/12 00:38:37;;;;;;;27.80;13.77;;;0.30;99.90;;;;;;4985219;28;20037;-83
2022/12/12 00:41:04;;;;;;;29.98;14.25;;;0.30;99.90;;;;;;4985716;28;20108;-82
2022/12/12 00:43:32;;;;;;;27.13;13.43;;;0.30;99.90;;;;;;4988124;28;20129;-82
2022/12/12 00:45:59;;;;;;;27.23;12.95;;;0.30;99.90;;;;;;4983527;28;20034;-82
2022/12/12 00:48:26;;;;;;;27.00;13.32;;;0.30;99.90;;;;;;4983251;28;20545;-82
2022/12/12 00:50:52;;;;;;;25.80;12.98;;;0.30;99.90;;;;;;4981451;28;20050;-82
2022/12/12 00:53:18;;;;;;;28.08;13.27;;;0.30;99.90;;;;;;4988280;28;20048;-82
2022/12/12 00:55:44;;;;;;;28.13;13.65;;;0.30;99.90;;;;;;4980408;28;20034;-83
2022/12/12 00:58:10;;;;;;;28.05;13.40;;;0.30;99.90;;;;;;4983500;28;20317;-82
2022/12/12 01:00:41;;;;;;;29.25;14.32;;;0.30;99.90;;;;;;4984259;28;20129;-83
2022/12/12 01:03:07;;;;;;;29.05;12.90;;;0.30;99.90;;;;;;4984643;28;20397;-82
2022/12/12 01:05:32;;;;;;;26.83;13.65;;;0.40;99.90;;;;;;5003230;28;20108;-82
2022/12/12 01:07:58;;;;;;;28.27;13.48;;;0.30;99.90;;;;;;4983438;28;20057;-82
2022/12/12 01:10:24;;;;;;;26.35;13.15;;;0.30;99.90;;;;;;4985562;28;20041;-83
2022/12/12 01:12:49;;;;;;;26.38;13.00;;;0.30;99.90;;;;;;4966271;28;20124;-83
2022/12/12 01:15:15;;;;;;;25.13;13.88;;;0.30;99.90;;;;;;4979566;28;20053;-82
2022/12/12 01:17:41;;;;;;;28.58;13.90;;;0.30;99.90;;;;;;4982519;28;20049;-82
2022/12/12 01:20:20;;;;;;;27.75;12.98;;;0.30;99.90;;;;;;5003285;28;20046;-82
2022/12/12 01:22:49;;;;;;;25.25;12.63;;;0.40;99.90;;;;;;4991350;28;20089;-82
2022/12/12 01:25:16;;;;;;;26.27;13.20;;;0.40;99.90;;;;;;4984105;28;20053;-81
2022/12/12 01:27:50;;;;;;;27.15;13.32;;;0.40;99.90;;;;;;4985917;28;20050;-82
2022/12/12 01:30:20;;;;;;;29.70;13.35;;;0.30;99.90;;;;;;4971049;28;20041;-82
2022/12/12 01:32:46;;;;;;;26.67;13.35;;;0.30;99.90;;;;;;4981783;28;20034;-83
2022/12/12 01:35:11;;;;;;;29.10;13.35;;;0.30;99.90;;;;;;4985614;28;20409;-82
2022/12/12 01:37:39;;;;;;;30.15;13.75;;;0.30;99.90;;;;;;5001922;28;20187;-82
2022/12/12 01:40:08;;;;;;;28.80;13.90;;;0.40;99.90;;;;;;5003612;28;20188;-83
2022/12/12 01:42:34;;;;;;;28.27;13.45;;;0.30;99.90;;;;;;4967532;28;20038;-83
2022/12/12 01:45:00;;;;;;;30.40;13.63;;;0.40;99.90;;;;;;5001185;28;20375;-83
2022/12/12 01:47:26;;;;;;;26.73;13.23;;;0.30;99.90;;;;;;4987997;28;20057;-82
2022/12/12 01:50:02;;;;;;;26.17;12.93;;;0.30;99.90;;;;;;4972303;28;20068;-82
2022/12/12 01:52:33;;;;;;;28.38;12.95;;;0.30;99.90;;;;;;4995079;28;20050;-82
2022/12/12 01:55:16;;;;;;;26.58;13.50;;;0.30;99.90;;;;;;4985123;28;20168;-83
2022/12/12 01:57:51;;;;;;;28.55;12.98;;;0.30;99.90;;;;;;4990792;28;20041;-84
2022/12/12 02:00:17;;;;;;;30.25;14.20;;;0.40;99.90;;;;;;4985765;28;20121;-84
2022/12/12 02:03:12;;;;;;;31.13;13.55;;;0.30;99.90;;;;;;4986035;28;20058;-84
2022/12/12 02:05:45;;;;;;;29.43;12.97;;;0.30;99.90;;;;;;4982503;28;20054;-83
2022/12/12 02:08:12;;;;;;;25.85;12.95;;;0.30;99.90;;;;;;4965113;28;20626;-84
2022/12/12 02:10:38;;;;;;;25.30;13.43;;;0.30;99.90;;;;;;4965599;28;20122;-84
2022/12/12 02:13:13;;;;;;;27.58;13.68;;;0.30;99.90;;;;;;4986364;28;20469;-84
2022/12/12 02:15:51;;;;;;;26.58;13.18;;;0.30;99.90;;;;;;4983318;28;20073;-84
2022/12/12 02:18:52;;;;;;;25.48;13.07;;;0.30;99.90;;;;;;5003836;28;20038;-84
2022/12/12 02:21:35;;;;;;;25.20;12.93;;;0.30;99.90;;;;;;4954094;28;20050;-84
2022/12/12 02:24:49;;;;;;;24.35;12.18;;;0.30;99.90;;;;;;4973462;28;20421;-84
2022/12/12 02:27:36;;;;;;;26.05;13.13;;;0.30;99.90;;;;;;5001137;28;20046;-83
2022/12/12 02:30:29;;;;;;;26.77;12.73;;;0.30;99.90;;;;;;4978755;28;20042;-84
2022/12/12 02:33:39;;;;;;;26.63;12.73;;;0.30;99.90;;;;;;4996969;28;20060;-84
2022/12/12 02:36:46;;;;;;;27.08;13.73;;;0.30;99.90;;;;;;5004616;28;20077;-83
2022/12/12 02:39:51;;;;;;;25.63;11.77;;;0.30;99.90;;;;;;5004534;28;20136;-84
2022/12/12 02:42:28;;;;;;;24.67;12.23;;;0.30;99.90;;;;;;5001241;28;20046;-84
2022/12/12 02:45:04;;;;;;;25.63;11.70;;;0.20;99.90;;;;;;4984196;28;20376;-84
2022/12/12 02:47:34;;;;;;;26.52;12.90;;;0.20;99.90;;;;;;4991426;28;20112;-84
2022/12/12 02:50:06;;;;;;;24.30;12.23;;;0.20;99.90;;;;;;4989153;28;20077;-84
2022/12/12 02:52:33;;;;;;;26.42;12.90;;;0.30;99.90;;;;;;4986758;28;20058;-84
2022/12/12 02:54:59;;;;;;;24.38;13.00;;;0.30;99.90;;;;;;4988279;28;20042;-84
2022/12/12 02:57:26;;;;;;;24.77;12.98;;;0.30;99.90;;;;;;4972679;28;20533;-84
2022/12/12 02:59:57;;;;;;;25.50;12.50;;;0.30;99.90;;;;;;4987773;28;20053;-84
2022/12/12 03:07:45;;;;;;;27.48;12.95;;;0.20;99.90;;;;;;4985390;28;20050;-84
2022/12/12 03:08:39;;;;;;;25.40;12.80;;;0.20;99.90;;;;;;5005703;28;20285;-84
2022/12/12 03:11:10;;;;;;;28.45;12.60;;;0.20;99.90;;;;;;4986764;28;20430;-84
2022/12/12 03:14:03;;;;;;;27.52;13.32;;;0.20;99.90;;;;;;4990124;28;20588;-84
2022/12/12 03:16:34;;;;;;;26.17;12.68;;;0.20;99.90;;;;;;5005121;28;20038;-84
2022/12/12 03:19:23;;;;;;;27.33;13.23;;;0.20;99.90;;;;;;4986311;28;20076;-83
2022/12/12 03:22:20;;;;;;;21.20;11.18;;;0.20;99.90;;;;;;4983103;28;20520;-84
2022/12/12 03:25:06;;;;;;;25.83;12.05;;;0.20;99.90;;;;;;4987747;28;20041;-84
2022/12/12 03:27:39;;;;;;;25.60;13.18;;;0.20;99.90;;;;;;4989660;28;20111;-84
2022/12/12 03:30:12;;;;;;;23.77;12.68;;;0.30;99.90;;;;;;4985361;28;20065;-84
2022/12/12 03:32:56;;;;;;;26.30;13.18;;;0.30;99.90;;;;;;4987806;28;20126;-82
2022/12/12 03:35:45;;;;;;;27.30;13.23;;;0.20;99.90;;;;;;5004966;28;20491;-83
2022/12/12 03:38:19;;;;;;;25.35;12.73;;;0.20;99.90;;;;;;4985226;28;20093;-83
2022/12/12 03:41:07;;;;;;;27.75;12.82;;;0.30;99.90;;;;;;4987327;28;20140;-83
2022/12/12 03:44:22;;;;;;;24.42;11.60;;;0.20;99.90;;;;;;4975711;28;20042;-83
2022/12/12 03:47:02;;;;;;;27.35;12.40;;;0.30;99.90;;;;;;4905279;28;20131;-83
2022/12/12 03:49:50;;;;;;;27.27;13.10;;;0.30;99.90;;;;;;4987640;28;20104;-83
2022/12/12 03:52:34;;;;;;;24.23;11.48;;;0.30;99.90;;;;;;5002086;28;20138;-82
2022/12/12 03:55:26;;;;;;;26.40;12.43;;;0.30;99.90;;;;;;4988802;28;20535;-83
2022/12/12 03:58:00;;;;;;;23.65;12.75;;;0.20;99.90;;;;;;4960262;28;20129;-83
2022/12/12 04:00:29;;;;;;;23.83;12.48;;;0.20;99.90;;;;;;4989726;28;20063;-83
2022/12/12 04:03:17;;;;;;;25.10;12.65;;;0.20;99.90;;;;;;4988797;28;20058;-83
2022/12/12 04:06:28;;;;;;;28.33;12.10;;;0.20;99.90;;;;;;4972213;28;20096;-84
2022/12/12 04:14:53;;;;;;;24.75;11.50;;;0.20;99.90;;;;;;4992692;28;20065;-83
2022/12/12 04:17:30;;;;;;;24.77;12.23;;;0.20;99.90;;;;;;4988162;28;20053;-83
2022/12/12 04:23:21;;;;;;;24.13;12.65;;;0.20;99.90;;;;;;4988834;28;20081;-83
2022/12/12 04:28:39;;;;;;;24.15;11.93;;;0.20;99.90;;;;;;4981751;28;20565;-83
2022/12/12 04:31:07;;;;;;;26.40;12.18;;;0.20;99.90;;;;;;4987448;28;20521;-83
2022/12/12 04:33:43;;;;;;;26.08;13.02;;;0.20;99.90;;;;;;5003813;28;20050;-83
2022/12/12 04:36:11;;;;;;;24.48;11.75;;;0.20;99.90;;;;;;5002530;28;20044;-83
2022/12/12 04:38:38;;;;;;;25.83;12.38;;;0.20;99.90;;;;;;4974776;28;20422;-83
2022/12/12 04:41:07;;;;;;;25.60;12.80;;;0.20;99.90;;;;;;4970066;28;20123;-83
2022/12/12 04:43:39;;;;;;;23.75;11.32;;;0.20;99.90;;;;;;4988469;28;20038;-83
2022/12/12 04:46:19;;;;;;;27.10;11.68;;;0.20;99.90;;;;;;4970235;28;20179;-83
2022/12/12 04:48:46;;;;;;;24.92;12.50;;;0.20;99.90;;;;;;4995719;28;22116;-83
2022/12/12 04:51:17;;;;;;;24.92;12.75;;;0.20;99.90;;;;;;4986754;28;20084;-83
2022/12/12 04:53:49;;;;;;;24.30;12.45;;;0.20;99.90;;;;;;4986798;28;20117;-83
2022/12/12 04:56:20;;;;;;;28.23;12.32;;;0.30;99.90;;;;;;4975863;28;20049;-83
2022/12/12 04:58:46;;;;;;;28.58;13.52;;;0.30;99.90;;;;;;4985573;28;20049;-83
2022/12/12 05:01:19;;;;;;;26.48;12.38;;;0.20;99.90;;;;;;4985246;28;20347;-83
2022/12/12 05:03:54;;;;;;;26.13;12.40;;;0.20;99.90;;;;;;4970482;28;20129;-83
2022/12/12 05:06:27;;;;;;;23.45;12.10;;;0.20;99.90;;;;;;4972027;28;20041;-84
2022/12/12 05:08:57;;;;;;;25.17;12.40;;;0.20;99.90;;;;;;4986968;28;20458;-83
2022/12/12 05:11:23;;;;;;;23.40;12.10;;;0.20;99.90;;;;;;4986116;28;20050;-84
2022/12/12 05:13:49;;;;;;;24.85;12.40;;;0.20;99.90;;;;;;4984021;28;20052;-83
2022/12/12 05:16:31;;;;;;;24.23;11.95;;;0.20;99.90;;;;;;4986872;28;20436;-83
2022/12/12 05:18:57;;;;;;;25.67;12.32;;;0.20;99.90;;;;;;4987306;28;20034;-83
2022/12/12 05:21:23;;;;;;;26.80;13.07;;;0.20;99.90;;;;;;4986478;28;20041;-84
2022/12/12 05:23:48;;;;;;;23.50;12.32;;;0.20;99.90;;;;;;4986580;28;20124;-83
2022/12/12 05:26:23;;;;;;;26.00;12.93;;;0.20;99.90;;;;;;4981846;28;20461;-83
2022/12/12 05:28:50;;;;;;;24.63;12.50;;;0.20;99.90;;;;;;4983102;28;20053;-83
2022/12/12 05:31:16;;;;;;;26.33;12.07;;;0.20;99.90;;;;;;4986692;28;20050;-83
2022/12/12 05:33:45;;;;;;;24.48;11.65;;;0.20;99.90;;;;;;4984990;28;20060;-84
2022/12/12 05:36:11;;;;;;;26.45;12.02;;;0.20;99.90;;;;;;4987711;28;20560;-83
2022/12/12 05:38:37;;;;;;;27.30;12.15;;;0.20;99.90;;;;;;4970175;28;20408;-84
2022/12/12 05:41:04;;;;;;;28.08;12.57;;;0.20;99.90;;;;;;4986680;28;20049;-83
2022/12/12 05:43:30;;;;;;;26.85;12.90;;;0.20;99.90;;;;;;4984465;28;20184;-83
2022/12/12 05:45:56;;;;;;;23.65;12.00;;;0.10;99.90;;;;;;4983764;28;20038;-83
2022/12/12 05:48:25;;;;;;;24.13;11.80;;;0.20;99.90;;;;;;4979904;28;20042;-84
2022/12/12 05:51:03;;;;;;;25.90;11.27;;;0.20;99.90;;;;;;4984529;28;20081;-83
2022/12/12 05:53:29;;;;;;;25.27;12.38;;;0.20;99.90;;;;;;4973715;28;20724;-84
2022/12/12 05:55:55;;;;;;;23.85;12.13;;;0.20;99.90;;;;;;4979364;28;20458;-84
2022/12/12 05:58:22;;;;;;;24.98;12.45;;;0.20;99.90;;;;;;4987454;28;20048;-84
2022/12/12 06:00:49;;;;;;;26.23;12.32;;;0.20;99.90;;;;;;4985759;28;20060;-85
2022/12/12 06:03:15;;;;;;;28.85;12.77;;;0.20;99.90;;;;;;4973436;28;20374;-84
2022/12/12 06:05:41;;;;;;;26.77;13.20;;;0.20;99.90;;;;;;5006741;28;20057;-84
2022/12/12 06:08:07;;;;;;;24.45;12.48;;;0.20;99.90;;;;;;4975140;28;20042;-84
2022/12/12 06:10:33;;;;;;;25.33;12.23;;;0.20;99.90;;;;;;4992211;28;20038;-85
2022/12/12 06:12:59;;;;;;;27.95;12.98;;;0.20;99.90;;;;;;4988588;28;20049;-84
2022/12/12 06:15:24;;;;;;;26.35;12.73;;;0.10;99.90;;;;;;4988608;28;20043;-85
2022/12/12 06:17:50;;;;;;;26.17;12.40;;;0.10;99.90;;;;;;4984935;28;20050;-84
2022/12/12 06:20:17;;;;;;;24.05;12.65;;;0.10;99.90;;;;;;4984882;28;20216;-84
2022/12/12 06:22:43;;;;;;;25.75;12.68;;;0.10;99.90;;;;;;4987571;28;20133;-84
2022/12/12 06:25:09;;;;;;;23.05;12.52;;;0.10;99.90;;;;;;4981585;28;20184;-85
2022/12/12 06:27:35;;;;;;;22.27;11.45;;;0.10;99.90;;;;;;4985116;28;20049;-83
2022/12/12 06:30:02;;;;;;;27.75;12.77;;;0.10;99.90;;;;;;4986346;28;20052;-85
2022/12/12 06:32:28;;;;;;;24.40;12.48;;;0.10;99.90;;;;;;4981140;28;20127;-85
2022/12/12 06:34:53;;;;;;;23.88;12.57;;;0.10;99.90;;;;;;4985044;28;20140;-84
2022/12/12 06:37:20;;;;;;;26.45;12.73;;;0.10;99.90;;;;;;4980948;28;20176;-84
2022/12/12 06:39:46;;;;;;;27.02;12.63;;;0.10;99.90;;;;;;4985014;28;20046;-84
2022/12/12 06:42:12;;;;;;;25.17;12.10;;;0.00;99.90;;;;;;4986155;28;20427;-84
2022/12/12 06:44:37;;;;;;;26.98;12.23;;;0.10;99.90;;;;;;4972553;28;20335;-85
2022/12/12 06:47:09;;;;;;;29.05;13.10;;;0.10;99.90;;;;;;4988665;28;20045;-84
2022/12/12 06:49:35;;;;;;;25.90;12.88;;;0.10;99.90;;;;;;4985033;28;20459;-84
2022/12/12 06:52:04;;;;;;;23.88;12.80;;;0.10;99.90;;;;;;4969079;28;20050;-84
2022/12/12 06:54:33;;;;;;;26.73;13.25;;;0.10;99.90;;;;;;4988588;28;20038;-84
2022/12/12 06:57:01;;;;;;;24.25;12.40;;;0.10;99.90;;;;;;4972917;28;20144;-85
2022/12/12 06:59:30;;;;;;;25.17;12.73;;;0.00;99.90;;;;;;5000622;28;20049;-84
2022/12/12 07:02:05;;;;;;;25.17;12.68;;;0.00;99.90;;;;;;4986992;28;20060;-85
2022/12/12 07:04:31;;;;;;;27.60;12.82;;;0.00;99.90;;;;;;4973805;28;20300;-84
2022/12/12 07:06:57;;;;;;;25.67;12.63;;;0.10;99.90;;;;;;4973732;28;20161;-84
2022/12/12 07:09:23;;;;;;;26.75;13.38;;;0.10;99.90;;;;;;4977474;28;20109;-84
2022/12/12 07:11:57;;;;;;;;;;;0.10;99.90;;;;;;4959777;28;20046;-84
2022/12/12 07:14:23;;;;;;;25.95;13.68;;;0.10;99.90;;;;;;4975958;28;20560;-84
2022/12/12 07:16:49;;;;;;;27.95;13.15;;;0.10;99.90;;;;;;4975626;28;20061;-84
2022/12/12 07:19:15;;;;;;;29.73;13.82;;;0.10;99.90;;;;;;4975359;28;20599;-84
2022/12/12 07:21:41;;;;;;;28.95;13.70;;;0.00;99.90;;;;;;4975012;28;20409;-84
2022/12/12 07:24:09;;;;;;;25.45;13.10;;;0.10;99.90;;;;;;4977513;28;20069;-84
2022/12/12 07:26:35;;;;;;;25.60;11.98;;;0.10;99.90;;;;;;4974772;28;20121;-83
2022/12/12 07:29:04;;;;;;;25.98;12.50;;;0.10;99.90;;;;;;4977538;28;20053;-84
2022/12/12 07:31:30;;;;;;;25.75;12.90;;;0.10;99.90;;;;;;4965261;28;20134;-84
2022/12/12 07:33:55;;;;;;;25.90;12.93;;;0.10;99.90;;;;;;4977165;28;20061;-85
2022/12/12 07:36:58;;;;;;;25.02;12.90;;;0.10;99.90;;;;;;4977461;28;20295;-84
2022/12/12 07:39:24;;;;;;;24.75;12.05;;;0.10;99.90;;;;;;4976040;28;20038;-85
2022/12/12 07:41:50;;;;;;;25.27;11.93;;;0.10;99.90;;;;;;4996946;28;20536;-84
2022/12/12 07:44:16;;;;;;;24.23;11.77;;;0.10;99.90;;;;;;4961354;28;20132;-84
2022/12/12 07:46:41;;;;;;;24.23;12.82;;;0.10;99.90;;;;;;4975032;28;20048;-84
2022/12/12 07:49:15;;;;;;;26.85;12.82;;;0.10;99.90;;;;;;4959364;28;20080;-84
2022/12/12 07:51:41;;;;;;;29.53;14.33;;;0.10;99.90;;;;;;4976102;28;20497;-85
2022/12/12 07:54:07;;;;;;;21.92;12.02;;;0.10;99.90;;;;;;4962961;28;20061;-84
2022/12/12 07:56:32;;;;;;;27.48;12.98;;;0.10;99.90;;;;;;4994005;28;20044;-84
2022/12/12 07:58:58;;;;;;;23.35;11.45;;;0.10;99.90;;;;;;4962954;28;20045;-85
2022/12/12 08:01:30;;;;;;;24.15;12.60;;;0.20;99.90;;;;;;4977680;28;20172;-85
2022/12/12 08:04:01;;;;;;;22.67;12.10;;;0.10;99.90;;;;;;4978689;28;20133;-84
2022/12/12 08:06:33;;;;;;;26.80;12.90;;;0.20;99.90;;;;;;4961013;28;20388;-84
2022/12/12 08:09:07;;;;;;;24.90;12.60;;;0.10;99.90;;;;;;4999486;28;20306;-84
2022/12/12 08:11:33;;;;;;;26.35;12.95;;;0.20;99.90;;;;;;4974859;28;20050;-84
2022/12/12 08:14:09;;;;;;;23.35;12.20;;;0.20;99.90;;;;;;4959118;28;20068;-84
2022/12/12 08:16:35;;;;;;;25.63;12.80;;;0.20;99.90;;;;;;4997477;28;20102;-84
2022/12/12 08:19:00;;;;;;;26.67;12.93;;;0.20;99.90;;;;;;4972046;28;20485;-84
2022/12/12 08:21:33;;;;;;;23.23;12.52;;;0.20;99.90;;;;;;4979840;28;20188;-84
2022/12/12 08:24:01;;;;;;;23.38;12.10;;;0.20;99.90;;;;;;4957413;28;20876;-83
2022/12/12 08:26:28;;;;;;;24.35;12.90;;;0.30;99.90;;;;;;4975447;28;20257;-85
2022/12/12 08:28:57;;;;;;;24.70;12.73;;;0.30;99.90;;;;;;4976690;28;20428;-84
2022/12/12 08:31:24;;;;;;;24.50;12.23;;;0.30;99.90;;;;;;4975591;28;20046;-84
2022/12/12 08:33:52;;;;;;;24.50;13.55;;;0.30;99.90;;;;;;4980924;28;20050;-85
2022/12/12 08:36:32;;;;;;;25.38;12.90;;;0.30;99.90;;;;;;4962063;28;20060;-84
2022/12/12 08:39:01;;;;;;;28.55;12.82;;;0.30;99.90;;;;;;4975362;28;20038;-85
2022/12/12 08:41:30;;;;;;;23.42;12.35;;;0.30;99.90;;;;;;4974484;28;20156;-85
2022/12/12 08:43:56;;;;;;;27.20;13.38;;;0.30;99.90;;;;;;4973369;28;20307;-85
2022/12/12 08:46:21;;;;;;;23.48;12.20;;;0.40;99.90;;;;;;4973949;28;20034;-84
2022/12/12 08:48:47;;;;;;;27.17;12.93;;;0.40;99.90;;;;;;4972096;28;20323;-84
2022/12/12 08:51:14;;;;;;;26.60;13.55;;;0.40;99.90;;;;;;4974668;28;20081;-84
2022/12/12 08:53:53;;;;;;;23.92;12.35;;;0.50;99.90;;;;;;4975370;28;20046;-84
2022/12/12 08:56:27;;;;;;;24.52;12.57;;;0.50;99.90;;;;;;4990026;28;20107;-84
2022/12/12 08:58:53;;;;;;;24.85;12.95;;;0.50;99.90;;;;;;4974274;28;20457;-84
2022/12/12 09:01:39;;;;;;;;;;;;;;;;;;;;;
2022/12/12 09:04:12;;;;;;;28.92;13.80;;;0.60;99.90;;;;;;4987405;28;20272;-84
2022/12/12 09:06:38;;;;;;;27.42;13.77;;;0.60;99.90;;;;;;4969859;28;20299;-84
2022/12/12 09:09:07;;;;;;;27.08;13.48;;;0.70;99.90;;;;;;4956549;28;20505;-84
2022/12/12 09:11:38;;;;;;;26.02;12.90;;;0.70;99.90;;;;;;4958965;28;20297;-84
2022/12/12 09:14:10;;;;;;;26.30;14.52;;;0.70;99.90;;;;;;4975054;28;20068;-85
2022/12/12 09:17:03;;;;;;;24.15;12.57;;;0.70;99.90;;;;;;4973206;28;20046;-84
2022/12/12 09:19:29;;;;;;;29.70;13.88;;;0.80;99.90;;;;;;4956154;28;20042;-84
2022/12/12 09:21:55;;;;;;;27.25;12.93;;;0.80;99.90;;;;;;4971485;28;20677;-84
2022/12/12 09:24:24;;;;;;;24.13;13.23;;;0.90;99.90;;;;;;4985586;28;22123;-84
2022/12/12 09:26:50;;;;;;;26.13;13.35;;;0.90;99.90;;;;;;4967997;28;20219;-84
2022/12/12 09:29:21;;;;;;;26.23;13.45;;;1.00;99.90;;;;;;4966618;28;20050;-84
2022/12/12 09:31:54;;;;;;;24.40;12.95;;;1.00;99.90;;;;;;4953778;28;20493;-84
2022/12/12 09:34:20;;;;;;;27.75;13.63;;;1.10;99.90;;;;;;4952728;28;20050;-85
2022/12/12 09:36:45;;;;;;;26.00;13.90;;;1.00;99.90;;;;;;4956572;28;20053;-85
2022/12/12 09:39:24;;;;;;;25.20;13.68;;;1.10;99.90;;;;;;4969565;28;20149;-83
2022/12/12 09:41:56;;;;;;;23.73;12.32;;;1.10;99.90;;;;;;4970380;28;20129;-84
2022/12/12 09:44:26;;;;;;;29.17;13.27;;;1.10;99.90;;;;;;4964541;28;20070;-84
2022/12/12 09:46:56;;;;;;;23.67;12.52;;;1.10;99.90;;;;;;4970522;28;20058;-83
2022/12/12 09:49:41;;;;;;;25.33;13.15;;;1.20;99.90;;;;;;4970210;28;20045;-83
2022/12/12 09:52:14;;;;;;;23.75;12.20;;;1.20;99.90;;;;;;4957147;28;20042;-84
2022/12/12 09:54:51;;;;;;;24.30;13.05;;;1.20;99.90;;;;;;4970798;28;20096;-83
2022/12/12 09:57:39;;;;;;;22.40;12.00;;;1.20;99.90;;;;;;4964890;28;20096;-84
2022/12/12 10:00:17;;;;;;;24.90;13.30;;;1.20;99.90;;;;;;4950403;28;20322;-83
2022/12/12 10:02:55;;;;;;;25.38;13.70;;;1.20;99.90;;;;;;4975160;28;20147;-83
2022/12/12 10:05:28;;;;;;;26.58;13.88;;;1.40;99.90;;;;;;4984144;28;20129;-83
2022/12/12 10:08:12;;;;;;;23.27;12.02;;;1.40;99.90;;;;;;4959580;28;20576;-83
2022/12/12 10:10:42;;;;;;;22.47;12.53;;;1.30;99.90;;;;;;4974334;28;20505;-83
2022/12/12 10:13:20;;;;;;;23.48;13.63;;;1.40;99.90;;;;;;4976559;28;20296;-82
2022/12/12 10:16:06;;;;;;;22.05;12.25;;;1.50;99.90;;;;;;4973971;28;20045;-82
2022/12/12 10:18:54;;;;;;;21.33;12.15;;;1.50;99.90;;;;;;4991560;28;20049;-81
2022/12/12 10:21:30;;;;;;;20.63;12.18;;;1.50;99.90;;;;;;4959106;28;20042;-82
2022/12/12 10:24:08;;;;;;;20.63;11.98;;;1.50;99.90;;;;;;4974279;28;20199;-81
2022/12/12 10:26:34;;;;;;;21.00;12.27;;;1.50;99.90;;;;;;4980058;28;20167;-81
2022/12/12 10:29:17;;;;;;;22.08;11.82;;;1.60;99.90;;;;;;4963769;28;20053;-81
2022/12/12 10:32:04;;;;;;;22.42;11.43;;;1.60;99.90;;;;;;4972028;28;20042;-81
2022/12/12 10:35:18;;;;;;;21.10;12.15;;;1.60;99.90;;;;;;4984832;28;20130;-81
2022/12/12 10:37:59;;;;;;;21.25;11.95;;;1.50;99.90;;;;;;4943172;28;20050;-81
2022/12/12 10:40:58;;;;;;;21.45;12.05;;;1.50;99.90;;;;;;4979095;28;20038;-81
2022/12/12 10:43:51;;;;;;;21.23;12.73;;;1.40;99.90;;;;;;4998295;28;20092;-81
2022/12/12 10:46:49;;;;;;;21.92;12.02;;;1.60;99.90;;;;;;4966761;28;20048;-81
2022/12/12 10:49:17;;;;;;;21.50;11.90;;;1.50;99.90;;;;;;4977809;28;20449;-81
2022/12/12 10:51:46;;;;;;;21.80;11.50;;;1.60;99.90;;;;;;4979466;28;20288;-81
2022/12/12 10:54:25;;;;;;;21.17;10.75;;;1.60;99.90;;;;;;4960971;28;20045;-81
2022/12/12 10:57:31;;;;;;;20.23;11.32;;;1.70;99.90;;;;;;4977851;28;20125;-81
2022/12/12 10:59:57;;;;;;;18.67;10.48;;;1.70;99.90;;;;;;4965762;28;20054;-81
2022/12/12 11:02:39;;;;;;;20.02;11.15;;;1.80;99.90;;;;;;4994680;28;20148;-81
2022/12/12 11:05:05;;;;;;;20.60;11.38;;;1.80;99.90;;;;;;4980320;28;20116;-81
2022/12/12 11:07:39;;;;;;;20.27;11.27;;;1.80;99.90;;;;;;4963391;28;20187;-81
2022/12/12 11:10:30;;;;;;;19.98;11.20;;;2.00;99.90;;;;;;4977587;28;20127;-81
2022/12/12 11:12:59;;;;;;;20.45;11.02;;;2.00;99.90;;;;;;4982082;28;20044;-81
2022/12/12 11:15:30;;;;;;;23.73;12.55;;;2.00;99.90;;;;;;4962934;28;20123;-81
2022/12/12 11:17:57;;;;;;;22.25;11.65;;;2.10;99.90;;;;;;4977920;28;20042;-81
2022/12/12 11:20:26;;;;;;;20.92;12.00;;;2.10;99.90;;;;;;4996504;28;20134;-81
2022/12/12 11:22:54;;;;;;;22.90;11.88;;;2.10;99.90;;;;;;4976796;28;20049;-81
2022/12/12 11:25:29;;;;;;;20.17;11.13;;;2.10;99.90;;;;;;4977004;28;20057;-81
2022/12/12 11:28:01;;;;;;;21.45;12.50;;;2.00;99.90;;;;;;4976657;28;20739;-81
2022/12/12 11:30:35;;;;;;;20.70;12.23;;;2.00;99.90;;;;;;4974400;28;20080;-81
2022/12/12 11:33:02;;;;;;;20.15;11.48;;;2.10;99.90;;;;;;4977473;28;20068;-81
2022/12/12 11:35:33;;;;;;;20.77;11.98;;;2.10;99.90;;;;;;4994804;28;20423;-82
2022/12/12 11:38:03;;;;;;;24.30;12.63;;;2.10;99.90;;;;;;4973748;28;20046;-81
2022/12/12 11:40:32;;;;;;;19.25;11.60;;;2.20;99.90;;;;;;4973995;28;20526;-82
2022/12/12 11:43:27;;;;;;;19.35;10.93;;;2.10;99.90;;;;;;4973511;28;20195;-81
2022/12/12 11:46:13;;;;;;;21.67;11.90;;;2.10;99.90;;;;;;4977496;28;20042;-81
2022/12/12 11:48:51;;;;;;;21.38;12.38;;;2.20;99.90;;;;;;4974683;28;20083;-81
2022/12/12 11:51:36;;;;;;;22.27;12.38;;;2.20;99.90;;;;;;4992123;28;20562;-81
2022/12/12 11:54:24;;;;;;;18.98;11.18;;;2.20;99.90;;;;;;4990878;28;21398;-81
2022/12/12 11:57:15;;;;;;;22.25;11.40;;;2.00;99.90;;;;;;4973634;28;20053;-81
2022/12/12 11:59:47;;;;;;;22.92;12.23;;;2.20;99.90;;;;;;4973937;28;20144;-82
2022/12/12 12:02:31;;;;;;;22.40;12.95;;;2.20;99.90;;;;;;4973699;28;20762;-81
2022/12/12 12:05:35;;;;;;;20.98;12.32;;;2.10;99.90;;;;;;4967996;28;20506;-81
2022/12/12 12:08:13;;;;;;;24.00;12.88;;;2.20;99.90;;;;;;4965242;28;20108;-82
2022/12/12 12:10:57;;;;;;;19.80;11.23;;;2.30;99.90;;;;;;4987274;28;20383;-82
2022/12/12 12:13:45;;;;;;;21.38;11.70;;;2.30;99.90;;;;;;4971365;28;20041;-81
2022/12/12 12:16:45;;;;;;;22.80;11.73;;;2.20;99.90;;;;;;4975980;28;20358;-82
2022/12/12 12:19:26;;;;;;;23.27;12.32;;;2.20;99.90;;;;;;4978405;28;20450;-82
2022/12/12 12:22:04;;;;;;;22.80;12.18;;;2.20;99.90;;;;;;4975350;28;21023;-82
2022/12/12 12:24:45;;;;;;;23.60;12.02;;;2.20;99.90;;;;;;4959369;28;20125;-82
2022/12/12 12:27:21;;;;;;;26.17;13.27;;;2.30;99.90;;;;;;4978282;28;20030;-82
2022/12/12 12:30:05;;;;;;;22.58;12.25;;;2.30;99.90;;;;;;4970651;28;20355;-82
2022/12/12 12:33:03;;;;;;;24.00;13.10;;;2.20;99.90;;;;;;4956292;28;20437;-81
2022/12/12 12:35:31;;;;;;;21.35;11.98;;;2.40;99.90;;;;;;4946226;28;20047;-81
2022/12/12 12:38:17;;;;;;;22.00;11.60;;;2.20;99.90;;;;;;4974847;28;20529;-81
2022/12/12 12:40:51;;;;;;;23.30;12.40;;;2.30;99.90;;;;;;4942450;28;20127;-81
2022/12/12 12:43:29;;;;;;;20.83;11.93;;;2.30;99.90;;;;;;4956217;28;20038;-81
2022/12/12 12:46:06;;;;;;;21.13;12.00;;;2.40;99.90;;;;;;4972171;28;20092;-82
2022/12/12 12:48:46;;;;;;;22.75;12.40;;;2.30;99.90;;;;;;4959847;28;20045;-81
2022/12/12 12:51:27;;;;;;;21.52;12.15;;;2.40;99.90;;;;;;4964837;28;20631;-82
2022/12/12 12:54:26;;;;;;;22.15;12.43;;;2.40;99.90;;;;;;4967637;28;20038;-81
2022/12/12 12:57:07;;;;;;;19.85;11.15;;;2.20;99.90;;;;;;4971925;28;20059;-82
2022/12/12 12:59:38;;;;;;;21.85;12.80;;;2.30;99.90;;;;;;4968367;28;20042;-82
2022/12/12 13:02:29;;;;;;;22.40;12.90;;;2.30;99.90;;;;;;4984239;28;20054;-81
2022/12/12 13:05:05;;;;;;;22.48;11.60;;;2.30;99.90;;;;;;4957591;28;20046;-82
2022/12/12 13:07:58;;;;;;;22.63;12.38;;;2.20;99.90;;;;;;4960876;28;20422;-81
2022/12/12 13:10:27;;;;;;;21.38;11.50;;;2.20;99.90;;;;;;4956114;28;20042;-82
2022/12/12 13:13:11;;;;;;;19.23;10.85;;;2.20;99.90;;;;;;4958501;28;20098;-81
2022/12/12 13:15:45;;;;;;;22.95;12.20;;;2.20;99.90;;;;;;4973893;28;20102;-82
2022/12/12 13:18:17;;;;;;;21.90;11.73;;;2.20;99.90;;;;;;4960021;28;20041;-81
2022/12/12 13:20:47;;;;;;;23.13;12.00;;;2.20;99.90;;;;;;4972907;28;20045;-81
2022/12/12 13:23:31;;;;;;;23.85;12.77;;;2.00;99.90;;;;;;4959598;28;20085;-82
2022/12/12 13:26:14;;;;;;;24.85;13.98;;;2.10;99.90;;;;;;4958788;28;20049;-82
2022/12/12 13:28:58;;;;;;;23.75;12.82;;;2.00;99.90;;;;;;4972130;28;20056;-82